Time;durP1;ratioP1;P1;durP2;ratioP2;P2;SDS_P1;SDS_P2;PMS_P1;PMS_P2;Temp;Humidity;BMP_temperature;BMP_pressure;BME280_temperature;BME280_humidity;BME280_pressure;Samples;Min_cycle;Max_cycle;Signal;HPM_P1;HPM_P2
2022/08/11 00:00:19;;;;;;;4.97;2.13;;;19.50;74.70;;;;;;5109699;28;20122;-81
2022/08/11 00:02:49;;;;;;;2.90;1.60;;;19.40;74.60;;;;;;5110908;28;20028;-82
2022/08/11 00:05:18;;;;;;;2.72;1.77;;;19.30;74.70;;;;;;5110725;28;20122;-81
2022/08/11 00:07:50;;;;;;;3.28;2.10;;;19.30;75.30;;;;;;5111478;28;20028;-82
2022/08/11 00:10:19;;;;;;;2.58;1.70;;;19.30;75.50;;;;;;5116688;28;20481;-81
2022/08/11 00:12:53;;;;;;;5.57;1.77;;;19.30;75.20;;;;;;5111657;28;20110;-82
2022/08/11 00:15:19;;;;;;;4.00;2.03;;;19.30;76.10;;;;;;5110215;28;20023;-81
2022/08/11 00:17:46;;;;;;;1.92;1.40;;;19.30;76.20;;;;;;5109001;28;20485;-81
2022/08/11 00:20:14;;;;;;;2.17;1.70;;;19.20;75.80;;;;;;5109375;28;20042;-82
2022/08/11 00:22:42;;;;;;;2.50;1.38;;;19.20;76.20;;;;;;5110235;28;20027;-82
2022/08/11 00:25:18;;;;;;;5.70;1.85;;;19.20;75.90;;;;;;5110733;28;20024;-82
2022/08/11 00:27:46;;;;;;;2.53;1.70;;;19.10;76.80;;;;;;5110634;28;20031;-82
2022/08/11 00:30:12;;;;;;;3.13;1.90;;;19.10;76.70;;;;;;5110487;28;20386;-81
2022/08/11 00:32:40;;;;;;;2.78;1.70;;;19.10;76.90;;;;;;5109006;28;20024;-83
2022/08/11 00:35:10;;;;;;;2.95;1.85;;;19.10;77.40;;;;;;5109212;28;20028;-82
2022/08/11 00:37:37;;;;;;;3.50;1.90;;;19.10;77.10;;;;;;5110231;28;20069;-82
2022/08/11 00:40:14;;;;;;;2.60;1.90;;;19.00;76.90;;;;;;5110804;28;20031;-82
2022/08/11 00:42:51;;;;;;;2.55;1.60;;;19.00;77.00;;;;;;5109294;28;20031;-82
2022/08/11 00:45:26;;;;;;;3.47;2.13;;;19.00;77.10;;;;;;5114376;28;20466;-82
2022/08/11 00:48:20;;;;;;;7.38;1.83;;;19.00;77.20;;;;;;5114597;27;20486;-82
2022/08/11 00:50:55;;;;;;;2.88;2.35;;;18.90;76.90;;;;;;5112894;28;20036;-82
2022/08/11 00:53:29;;;;;;;4.93;1.92;;;18.90;76.80;;;;;;5114535;27;20028;-81
2022/08/11 00:56:22;;;;;;;3.65;1.67;;;18.90;76.80;;;;;;5113984;28;20031;-83
2022/08/11 00:59:25;;;;;;;2.15;1.67;;;18.90;77.10;;;;;;5114633;28;20050;-83
2022/08/11 01:02:05;;;;;;;3.20;1.70;;;18.90;77.80;;;;;;5114234;28;20482;-83
2022/08/11 01:05:02;;;;;;;2.50;1.55;;;18.90;78.00;;;;;;5114528;28;20104;-83
2022/08/11 01:08:13;;;;;;;3.10;1.67;;;18.90;78.60;;;;;;5113494;28;20032;-83
2022/08/11 01:11:14;;;;;;;2.35;1.52;;;18.80;78.40;;;;;;5114154;28;20027;-83
2022/08/11 01:14:13;;;;;;;1.80;1.23;;;18.80;78.60;;;;;;5114199;28;20034;-83
2022/08/11 01:17:17;;;;;;;2.63;1.83;;;18.70;78.50;;;;;;5113539;28;20131;-84
2022/08/11 01:20:25;;;;;;;2.03;1.80;;;18.70;79.20;;;;;;5114177;28;20024;-84
2022/08/11 01:23:43;;;;;;;2.45;1.95;;;18.60;78.90;;;;;;5124169;28;20537;-83
2022/08/11 01:27:05;;;;;;;3.03;1.90;;;18.60;79.80;;;;;;5118843;28;20024;-84
2022/08/11 01:30:05;;;;;;;5.55;1.80;;;18.50;80.10;;;;;;5122403;28;20024;-81
2022/08/11 01:32:39;;;;;;;3.42;1.80;;;18.40;80.50;;;;;;5120755;28;20034;-83
2022/08/11 01:35:29;;;;;;;2.60;1.73;;;18.40;80.80;;;;;;5118826;28;20054;-82
2022/08/11 01:38:34;;;;;;;4.35;2.08;;;18.40;81.10;;;;;;5120304;28;20035;-83
2022/08/11 01:44:36;;;;;;;3.38;1.70;;;18.40;81.50;;;;;;5114103;28;20537;-83
2022/08/11 01:44:40;;;;;;;5.50;2.20;;;18.30;81.80;;;;;;5113897;28;20031;-83
2022/08/11 01:50:17;;;;;;;;;;;18.30;81.60;;;;;;5114160;28;20034;-83
2022/08/11 01:53:08;;;;;;;2.72;1.92;;;18.20;81.70;;;;;;5113139;28;20356;-83
2022/08/11 01:55:47;;;;;;;4.30;2.30;;;18.20;81.50;;;;;;5111514;28;20050;-83
2022/08/11 01:58:32;;;;;;;3.88;1.90;;;18.10;81.80;;;;;;5112375;28;20544;-83
2022/08/11 02:01:21;;;;;;;3.78;2.25;;;18.10;82.20;;;;;;5113073;28;20027;-84
2022/08/11 02:04:04;;;;;;;3.72;2.38;;;18.10;83.20;;;;;;5112040;28;20020;-83
2022/08/11 02:06:56;;;;;;;2.90;2.03;;;18.00;83.50;;;;;;5113932;28;20020;-83
2022/08/11 02:09:27;;;;;;;3.50;2.33;;;18.00;84.00;;;;;;5117531;28;20032;-82
2022/08/11 02:12:00;;;;;;;4.00;2.60;;;18.00;84.00;;;;;;5119175;28;20140;-82
2022/08/11 02:14:44;;;;;;;;;;;18.00;84.40;;;;;;5120233;28;20039;-82
2022/08/11 02:17:21;;;;;;;3.70;2.45;;;18.00;84.60;;;;;;5119940;28;20307;-81
2022/08/11 02:26:04;;;;;;;3.47;2.17;;;17.90;84.90;;;;;;5112235;28;20530;-84
2022/08/11 02:28:46;;;;;;;2.95;2.22;;;17.90;85.10;;;;;;5112495;28;20055;-84
2022/08/11 02:34:43;;;;;;;2.42;2.10;;;17.80;85.40;;;;;;5112435;28;20038;-80
2022/08/11 02:37:27;;;;;;;3.55;2.70;;;17.90;85.70;;;;;;5110456;28;20439;-81
2022/08/11 02:40:14;;;;;;;11.38;2.60;;;17.80;85.90;;;;;;5112940;28;20111;-83
2022/08/11 02:42:43;;;;;;;4.82;2.38;;;17.80;85.90;;;;;;5111076;28;20064;-84
2022/08/11 02:45:16;;;;;;;4.85;2.72;;;17.80;86.20;;;;;;5112418;28;20023;-83
2022/08/11 02:51:24;;;;;;;3.15;2.60;;;17.80;87.20;;;;;;5112753;28;20058;-82
2022/08/11 02:54:21;;;;;;;4.63;2.67;;;17.80;87.60;;;;;;5110676;28;20027;-83
2022/08/11 02:57:15;;;;;;;4.68;2.60;;;17.70;87.90;;;;;;5112116;28;20032;-82
2022/08/11 03:00:06;;;;;;;3.22;2.47;;;17.70;88.30;;;;;;5111723;28;20027;-82
2022/08/11 03:02:42;;;;;;;3.63;2.40;;;17.70;88.50;;;;;;5116227;28;20035;-82
2022/08/11 03:05:12;;;;;;;2.92;2.35;;;17.70;88.80;;;;;;5114565;28;20024;-83
2022/08/11 03:08:21;;;;;;;4.88;2.65;;;17.70;89.20;;;;;;5110461;28;20065;-83
2022/08/11 03:17:36;;;;;;;2.95;2.08;;;17.60;89.50;;;;;;5111136;28;20051;-82
2022/08/11 03:20:22;;;;;;;6.15;2.42;;;17.60;89.60;;;;;;5110209;28;20020;-81
2022/08/11 03:23:07;;;;;;;9.23;2.83;;;17.60;90.10;;;;;;5111199;28;20027;-83
2022/08/11 03:26:00;;;;;;;3.20;2.53;;;17.60;90.20;;;;;;5110777;28;20031;-81
2022/08/11 03:28:55;;;;;;;3.10;2.65;;;17.50;90.40;;;;;;5112068;28;20031;-82
2022/08/11 03:31:30;;;;;;;4.15;2.63;;;17.50;90.50;;;;;;5110743;28;20406;-82
2022/08/11 03:34:26;;;;;;;3.60;2.42;;;17.50;90.60;;;;;;5111420;28;20028;-81
2022/08/11 03:36:58;;;;;;;7.00;2.42;;;17.50;90.90;;;;;;5100264;28;20032;-81
2022/08/11 03:39:51;;;;;;;4.72;2.60;;;17.50;91.10;;;;;;5117786;28;20023;-81
2022/08/11 03:42:42;;;;;;;3.90;2.28;;;17.40;91.10;;;;;;5110723;28;20487;-81
2022/08/11 03:45:24;;;;;;;3.80;2.88;;;17.40;91.20;;;;;;5111024;28;20027;-81
2022/08/11 03:48:40;;;;;;;4.32;2.83;;;17.40;91.50;;;;;;5119602;28;20023;-80
2022/08/11 03:51:17;;;;;;;3.05;2.67;;;17.40;91.60;;;;;;5090717;28;20083;-81
2022/08/11 03:54:24;;;;;;;6.07;3.05;;;17.40;91.70;;;;;;5109417;28;20024;-81
2022/08/11 03:57:12;;;;;;;4.53;3.25;;;17.30;91.80;;;;;;5109877;28;20598;-81
2022/08/11 03:59:55;;;;;;;4.80;2.95;;;17.30;92.00;;;;;;5110596;28;20024;-81
2022/08/11 04:03:06;;;;;;;3.38;2.85;;;17.30;92.00;;;;;;5109924;28;20453;-82
2022/08/11 04:06:10;;;;;;;3.97;2.35;;;17.30;92.10;;;;;;5081052;28;20119;-82
2022/08/11 04:09:02;;;;;;;4.00;2.38;;;17.30;92.00;;;;;;5110362;28;20765;-81
2022/08/11 04:11:49;;;;;;;6.10;2.78;;;17.20;92.10;;;;;;5110135;28;20027;-80
2022/08/11 04:18:03;;;;;;;3.75;3.38;;;17.20;92.30;;;;;;5110063;28;20047;-81
2022/08/11 04:20:35;;;;;;;5.28;2.85;;;17.20;92.40;;;;;;5114997;28;20100;-82
2022/08/11 04:23:45;;;;;;;3.85;3.08;;;17.20;92.40;;;;;;5114570;28;20487;-81
2022/08/11 04:26:30;;;;;;;6.13;2.63;;;17.20;92.60;;;;;;5097788;28;20028;-81
2022/08/11 04:29:23;;;;;;;3.13;2.70;;;17.20;92.70;;;;;;5113705;28;20073;-81
2022/08/11 04:32:08;;;;;;;4.45;2.90;;;17.30;92.70;;;;;;5114455;28;20055;-82
2022/08/11 04:34:46;;;;;;;3.17;2.55;;;17.30;92.50;;;;;;5113743;28;20039;-81
2022/08/11 04:37:33;;;;;;;3.88;3.00;;;17.30;92.60;;;;;;5114220;28;20020;-81
2022/08/11 04:40:25;;;;;;;4.45;2.67;;;17.30;92.60;;;;;;5113410;28;20016;-81
2022/08/11 04:43:35;;;;;;;4.43;3.67;;;17.40;92.90;;;;;;5114744;28;20027;-81
2022/08/11 04:46:26;;;;;;;4.30;3.13;;;17.50;92.90;;;;;;5114500;28;20679;-80
2022/08/11 05:01:40;;;;;;;4.32;2.30;;;17.70;92.10;;;;;;5113942;28;19923;-81
2022/08/11 05:07:30;;;;;;;3.00;2.53;;;17.80;92.00;;;;;;5114059;28;20030;-81
2022/08/11 05:10:24;;;;;;;8.85;3.58;;;17.80;91.80;;;;;;5114456;28;20032;-81
2022/08/11 05:27:09;;;;;;;4.38;3.13;;;17.80;91.60;;;;;;5114129;28;20072;-81
2022/08/11 05:36:11;;;;;;;4.88;2.88;;;18.30;91.00;;;;;;5119173;28;20081;-81
2022/08/11 05:58:07;;;;;;;4.22;2.63;;;18.90;90.00;;;;;;5115947;28;20031;-82
2022/08/11 06:00:44;;;;;;;3.53;2.40;;;19.00;89.90;;;;;;5111866;28;20162;-81
2022/08/11 06:03:11;;;;;;;4.78;2.33;;;19.10;89.80;;;;;;5097863;28;20028;-81
2022/08/11 06:05:38;;;;;;;2.85;2.30;;;19.20;89.30;;;;;;5092328;28;20024;-82
2022/08/11 06:08:06;;;;;;;4.85;2.63;;;19.30;89.50;;;;;;5092920;28;20032;-83
2022/08/11 06:10:33;;;;;;;4.72;2.38;;;19.40;89.10;;;;;;5091639;28;20643;-83
2022/08/11 06:13:00;;;;;;;4.80;2.88;;;19.50;88.90;;;;;;5092679;28;20028;-81
2022/08/11 06:15:27;;;;;;;3.55;2.22;;;19.60;88.20;;;;;;5094508;28;20036;-78
2022/08/11 06:17:54;;;;;;;6.90;2.60;;;19.60;87.50;;;;;;5099016;28;20404;-81
2022/08/11 06:20:21;;;;;;;5.26;2.64;;;19.80;87.60;;;;;;5080903;28;991036;-80
2022/08/11 06:22:56;;;;;;;5.72;2.42;;;19.80;87.10;;;;;;5100105;28;20496;-81
2022/08/11 06:25:28;;;;;;;5.45;2.55;;;19.90;87.20;;;;;;5100378;28;20089;-83
2022/08/11 06:27:55;;;;;;;3.88;1.98;;;20.10;86.50;;;;;;5100985;28;20020;-81
2022/08/11 06:30:35;;;;;;;4.53;2.60;;;20.20;86.20;;;;;;5095565;28;20031;-81
2022/08/11 06:33:03;;;;;;;8.80;3.17;;;20.30;85.80;;;;;;5094985;28;20529;-82
2022/08/11 06:35:50;;;;;;;15.05;3.00;;;20.40;85.20;;;;;;5099130;28;20020;-82
2022/08/11 06:38:31;;;;;;;9.25;3.13;;;20.50;83.70;;;;;;5094319;28;20043;-82
2022/08/11 06:43:55;;;;;;;4.93;2.10;;;20.80;83.40;;;;;;5092844;28;20081;-83
2022/08/11 06:46:30;;;;;;;7.20;3.25;;;20.90;82.90;;;;;;5091697;28;20039;-82
2022/08/11 06:48:56;;;;;;;2.13;1.85;;;21.00;82.70;;;;;;5092739;28;20094;-82
2022/08/11 06:51:22;;;;;;;5.38;2.20;;;21.10;82.60;;;;;;5091734;28;20024;-83
2022/08/11 06:53:52;;;;;;;6.57;1.92;;;21.20;82.60;;;;;;5092400;28;20085;-83
2022/08/11 07:02:05;;;;;;;2.97;1.70;;;21.60;81.60;;;;;;5092092;28;20081;-83
2022/08/11 07:04:46;;;;;;;9.15;2.58;;;21.80;81.10;;;;;;5091945;28;20470;-83
2022/08/11 07:16:40;;;;;;;2.10;1.90;;;22.20;78.90;;;;;;5091081;28;20093;-83
2022/08/11 07:30:39;;;;;;;2.65;1.67;;;23.00;74.80;;;;;;5091522;28;20170;-84
2022/08/11 07:33:06;;;;;;;8.65;1.92;;;23.20;74.70;;;;;;5091286;28;20016;-83
2022/08/11 07:35:42;;;;;;;5.47;2.15;;;23.30;73.60;;;;;;5090809;28;20071;-83
2022/08/11 07:38:15;;;;;;;5.88;2.05;;;23.50;74.10;;;;;;5091352;28;20030;-83
2022/08/11 07:40:42;;;;;;;4.15;1.83;;;23.60;72.70;;;;;;5089329;28;20059;-83
2022/08/11 07:43:08;;;;;;;3.00;1.85;;;23.80;72.20;;;;;;5091263;28;20059;-85
2022/08/11 07:53:51;;;;;;;6.90;1.67;;;24.60;70.20;;;;;;5090856;28;20430;-85
2022/08/11 07:56:18;;;;;;;3.92;1.50;;;24.80;69.80;;;;;;5090298;28;20077;-84
2022/08/11 08:18:07;;;;;;;6.25;2.28;;;26.00;66.50;;;;;;5091149;28;20507;-84
2022/08/11 08:20:48;;;;;;;2.70;1.58;;;26.30;68.00;;;;;;5090388;28;20062;-83
2022/08/11 08:23:14;;;;;;;2.75;1.98;;;26.50;64.70;;;;;;5089529;28;20027;-85
2022/08/11 08:25:43;;;;;;;2.85;1.30;;;26.60;63.90;;;;;;5089874;28;20103;-84
2022/08/11 08:28:13;;;;;;;7.97;1.80;;;26.80;62.30;;;;;;5091031;28;20020;-85
2022/08/11 08:30:46;;;;;;;5.50;1.50;;;27.00;63.80;;;;;;5090370;28;20662;-86
2022/08/11 08:33:14;;;;;;;2.50;1.13;;;27.20;60.80;;;;;;5090725;28;20028;-85
2022/08/11 08:35:43;;;;;;;4.32;1.33;;;27.30;63.70;;;;;;5089961;28;20028;-86
2022/08/11 08:38:08;;;;;;;3.08;1.25;;;27.40;62.70;;;;;;5090304;28;20047;-85
2022/08/11 08:40:34;;;;;;;1.67;1.15;;;27.50;61.10;;;;;;5090288;28;20462;-85
2022/08/11 08:43:07;;;;;;;2.28;1.10;;;27.50;60.00;;;;;;5089982;28;20040;-85
2022/08/11 08:45:34;;;;;;;1.63;1.27;;;27.50;59.90;;;;;;5088779;28;20024;-86
2022/08/11 08:48:10;;;;;;;9.30;1.33;;;27.60;59.80;;;;;;5090647;28;20077;-85
2022/08/11 08:53:31;;;;;;;6.55;1.30;;;27.70;59.40;;;;;;5090769;28;20085;-86
2022/08/11 08:55:59;;;;;;;2.88;1.42;;;27.80;60.30;;;;;;5090358;28;20044;-86
2022/08/11 08:58:26;;;;;;;4.43;1.30;;;27.90;60.30;;;;;;5088596;28;20815;-85
2022/08/11 09:00:54;;;;;;;2.53;1.30;;;28.10;60.30;;;;;;5090319;28;20044;-86
2022/08/11 09:03:21;;;;;;;3.10;1.50;;;28.30;60.10;;;;;;5090012;28;20024;-85
2022/08/11 09:05:48;;;;;;;6.25;1.40;;;28.40;57.80;;;;;;5092967;28;20535;-86
2022/08/11 09:08:17;;;;;;;1.35;0.77;;;28.60;58.40;;;;;;5093816;28;20077;-85
2022/08/11 09:10:45;;;;;;;2.50;1.20;;;28.80;58.00;;;;;;5092370;28;20028;-86
2022/08/11 09:13:11;;;;;;;3.45;0.77;;;29.00;60.80;;;;;;5092696;28;20072;-86
2022/08/11 09:15:36;;;;;;;2.85;1.10;;;29.10;55.50;;;;;;5093548;28;20039;-87
2022/08/11 09:18:05;;;;;;;1.27;0.70;;;29.20;56.40;;;;;;5093999;28;20039;-86
2022/08/11 09:20:35;;;;;;;2.13;1.20;;;29.30;55.20;;;;;;5093773;28;20020;-86
2022/08/11 09:28:46;;;;;;;2.15;1.10;;;29.60;55.60;;;;;;5094491;28;20077;-85
2022/08/11 09:31:13;;;;;;;1.90;0.85;;;29.60;55.00;;;;;;5092484;28;20458;-86
2022/08/11 09:33:41;;;;;;;7.03;1.15;;;29.60;54.10;;;;;;5093927;28;20024;-86
2022/08/11 09:41:39;;;;;;;1.55;0.88;;;29.70;56.20;;;;;;5105981;28;20038;-84
2022/08/11 09:46:51;;;;;;;4.68;1.00;;;29.90;53.90;;;;;;5095405;28;20530;-85
2022/08/11 09:49:20;;;;;;;3.35;1.10;;;30.00;52.30;;;;;;5093289;28;20115;-85
2022/08/11 09:51:48;;;;;;;2.90;1.30;;;30.00;52.10;;;;;;5091529;28;20032;-85
2022/08/11 09:54:15;;;;;;;2.13;1.05;;;30.00;51.90;;;;;;5093278;28;20043;-86
2022/08/11 09:59:26;;;;;;;1.42;0.93;;;30.00;54.80;;;;;;5093310;28;20035;-87
2022/08/11 10:01:58;;;;;;;5.30;1.10;;;30.10;52.50;;;;;;5092258;28;20043;-84
2022/08/11 10:04:33;;;;;;;3.88;1.35;;;30.10;52.10;;;;;;5092643;28;20052;-84
2022/08/11 10:07:02;;;;;;;4.82;1.10;;;30.10;52.20;;;;;;5094192;28;20024;-86
2022/08/11 10:09:58;;;;;;;4.00;1.00;;;30.20;51.20;;;;;;5092683;28;20402;-86
2022/08/11 10:12:38;;;;;;;3.10;0.80;;;30.40;51.40;;;;;;5092561;28;20126;-87
2022/08/11 10:20:43;;;;;;;3.40;1.10;;;30.90;51.40;;;;;;5092796;28;20508;-85
2022/08/11 10:28:41;;;;;;;2.53;1.35;;;31.00;49.40;;;;;;5092747;28;20456;-85
2022/08/11 10:34:02;;;;;;;1.35;0.95;;;30.80;49.00;;;;;;5092671;28;20031;-86
2022/08/11 10:36:47;;;;;;;4.78;1.10;;;30.80;49.40;;;;;;5092185;28;20101;-84
2022/08/11 10:39:17;;;;;;;3.63;0.93;;;30.90;50.90;;;;;;5092614;28;20099;-86
2022/08/11 10:44:37;;;;;;;6.20;1.70;;;30.70;50.30;;;;;;5092628;28;20236;-86
2022/08/11 10:51:11;;;;;;;2.15;1.13;;;30.60;52.60;;;;;;5092355;28;20097;-85
2022/08/11 11:00:55;;;;;;;3.00;1.13;;;31.20;49.50;;;;;;5092129;28;20089;-86
2022/08/11 11:03:24;;;;;;;2.75;0.93;;;31.20;48.90;;;;;;5092615;28;20028;-87
2022/08/11 11:05:52;;;;;;;4.13;0.98;;;31.20;48.60;;;;;;5091425;28;20111;-87
2022/08/11 11:11:08;;;;;;;2.33;1.10;;;31.20;48.20;;;;;;5091942;28;20082;-88
2022/08/11 11:19:08;;;;;;;7.32;1.30;;;31.20;49.50;;;;;;5092020;28;20047;-85
2022/08/11 11:21:37;;;;;;;1.90;0.80;;;31.10;48.30;;;;;;5090117;28;20374;-84
2022/08/11 11:24:48;;;;;;;2.20;1.00;;;31.10;48.00;;;;;;5090486;28;20025;-86
2022/08/11 11:27:44;;;;;;;3.78;0.95;;;31.10;48.80;;;;;;5056406;28;20173;-84
2022/08/11 11:30:13;;;;;;;5.88;1.23;;;31.10;47.10;;;;;;5091882;28;20062;-85
2022/08/11 11:33:03;;;;;;;2.67;1.08;;;31.20;48.20;;;;;;5091299;28;20082;-84
2022/08/11 11:35:36;;;;;;;3.10;1.13;;;31.40;47.00;;;;;;5090833;28;20027;-85
2022/08/11 11:38:08;;;;;;;2.03;0.88;;;31.50;47.20;;;;;;5091272;28;20043;-87
2022/08/11 11:40:36;;;;;;;4.22;0.90;;;31.70;49.20;;;;;;5090315;28;20033;-84
2022/08/11 11:43:02;;;;;;;3.50;1.20;;;31.60;49.60;;;;;;5107400;28;20119;-85
2022/08/11 11:45:28;;;;;;;1.83;0.98;;;31.60;47.40;;;;;;5091131;28;20149;-86
2022/08/11 11:47:57;;;;;;;1.67;0.90;;;31.70;48.50;;;;;;5091790;28;20115;-86
2022/08/11 11:50:29;;;;;;;1.98;0.95;;;31.80;45.70;;;;;;5096475;28;20016;-85
2022/08/11 11:52:55;;;;;;;8.38;1.00;;;31.40;45.70;;;;;;5101940;28;20381;-85
2022/08/11 11:55:23;;;;;;;3.35;1.20;;;31.40;46.70;;;;;;5111757;28;20028;-83
2022/08/11 12:03:18;;;;;;;4.05;0.85;;;31.40;49.80;;;;;;5111842;28;20054;-84
2022/08/11 12:05:44;;;;;;;2.10;0.80;;;31.70;49.30;;;;;;5109944;28;20031;-85
2022/08/11 12:08:14;;;;;;;2.65;0.82;;;31.90;46.00;;;;;;5111999;28;20144;-85
2022/08/11 12:10:45;;;;;;;1.63;1.30;;;32.00;45.90;;;;;;5111614;28;20043;-83
2022/08/11 12:15:59;;;;;;;1.75;1.15;;;32.50;45.50;;;;;;5091114;28;20062;-86
2022/08/11 12:18:25;;;;;;;1.85;0.82;;;32.50;45.70;;;;;;5090484;28;20020;-88
2022/08/11 12:20:51;;;;;;;2.95;0.93;;;32.60;45.50;;;;;;5092808;28;20032;-84
2022/08/11 12:28:46;;;;;;;2.53;1.23;;;32.70;47.50;;;;;;5098179;28;20046;-85
2022/08/11 12:31:12;;;;;;;2.40;0.88;;;32.70;47.80;;;;;;5115741;28;20039;-84
2022/08/11 12:33:42;;;;;;;3.63;1.40;;;32.80;45.30;;;;;;5097946;28;20031;-84
2022/08/11 12:36:15;;;;;;;4.70;1.20;;;32.80;45.40;;;;;;5099378;28;20040;-85
2022/08/11 12:38:45;;;;;;;6.47;1.10;;;32.70;46.50;;;;;;5099464;28;20042;-85
2022/08/11 12:46:45;;;;;;;4.65;1.00;;;32.80;45.90;;;;;;5112064;28;20035;-84
2022/08/11 12:52:11;;;;;;;3.30;1.05;;;33.00;47.70;;;;;;5110690;28;20351;-83
2022/08/11 12:54:41;;;;;;;8.07;0.88;;;33.10;48.40;;;;;;5112472;28;20034;-82
2022/08/11 13:05:34;;;;;;;3.20;1.10;;;32.40;44.90;;;;;;5096208;28;20035;-86
2022/08/11 13:08:01;;;;;;;2.45;0.90;;;32.60;47.80;;;;;;5095141;28;20100;-86
2022/08/11 13:13:14;;;;;;;3.30;1.20;;;32.70;44.00;;;;;;5094708;28;20173;-83
2022/08/11 13:15:41;;;;;;;1.80;0.80;;;32.70;44.00;;;;;;5092864;28;20016;-84
2022/08/11 13:18:07;;;;;;;8.20;1.45;;;32.60;44.50;;;;;;5094507;28;20055;-84
2022/08/11 13:20:33;;;;;;;1.83;0.80;;;32.50;44.60;;;;;;5092959;28;20024;-83
2022/08/11 13:22:59;;;;;;;3.10;1.40;;;32.50;44.50;;;;;;5093259;28;20020;-86
2022/08/11 13:25:30;;;;;;;2.97;1.10;;;32.60;46.40;;;;;;5092693;28;20028;-85
2022/08/11 13:27:58;;;;;;;3.92;1.40;;;32.80;43.70;;;;;;5094454;28;20040;-86
2022/08/11 13:33:18;;;;;;;2.60;0.90;;;33.00;44.10;;;;;;5094375;28;20043;-83
2022/08/11 13:35:49;;;;;;;4.85;1.40;;;33.00;44.80;;;;;;5093355;28;20024;-85
2022/08/11 13:38:17;;;;;;;2.73;1.20;;;33.20;44.30;;;;;;5093971;28;20158;-85
2022/08/11 13:40:44;;;;;;;1.67;1.25;;;33.30;43.70;;;;;;5093653;28;20052;-85
2022/08/11 13:43:10;;;;;;;3.40;1.05;;;33.30;43.10;;;;;;5092684;28;20084;-85
2022/08/11 13:45:36;;;;;;;2.25;1.20;;;33.40;42.80;;;;;;5091924;28;20059;-84
2022/08/11 13:48:05;;;;;;;1.80;0.88;;;33.50;43.90;;;;;;5092458;28;20056;-85
2022/08/11 13:53:21;;;;;;;1.65;1.10;;;33.50;43.00;;;;;;5098661;28;20105;-87
2022/08/11 13:55:48;;;;;;;2.00;1.00;;;33.40;44.00;;;;;;5100104;28;20111;-85
2022/08/11 13:58:15;;;;;;;1.40;1.10;;;33.40;44.00;;;;;;5100110;28;20024;-84
2022/08/11 14:00:44;;;;;;;3.78;1.38;;;33.40;43.90;;;;;;5099600;28;20035;-85
2022/08/11 14:03:12;;;;;;;5.15;1.25;;;33.40;44.60;;;;;;5102269;28;20573;-84
2022/08/11 14:05:46;;;;;;;3.05;1.15;;;33.50;43.30;;;;;;5100099;28;20054;-86
2022/08/11 14:08:24;;;;;;;4.47;1.15;;;33.50;44.20;;;;;;5101958;28;20024;-85
2022/08/11 14:13:36;;;;;;;5.68;1.00;;;33.50;45.70;;;;;;5098967;28;20024;-85
2022/08/11 14:13:40;;;;;;;3.08;1.40;;;33.50;44.60;;;;;;5097107;28;20054;-84
2022/08/11 14:16:17;;;;;;;1.65;0.98;;;33.60;43.30;;;;;;5091371;28;20055;-84
2022/08/11 14:18:45;;;;;;;2.17;1.05;;;33.60;43.80;;;;;;5097333;28;20023;-83
2022/08/11 14:24:01;;;;;;;4.63;1.30;;;33.60;45.00;;;;;;5100872;28;20051;-83
2022/08/11 14:26:29;;;;;;;2.33;1.02;;;33.50;44.20;;;;;;5098700;28;20087;-84
2022/08/11 14:29:07;;;;;;;2.05;1.00;;;33.50;45.10;;;;;;5097640;28;20454;-84
2022/08/11 14:31:34;;;;;;;1.63;1.00;;;33.30;43.40;;;;;;5099280;28;20065;-83
2022/08/11 14:34:06;;;;;;;3.70;1.02;;;33.20;44.30;;;;;;5097681;28;20024;-84
2022/08/11 14:36:34;;;;;;;2.20;1.13;;;33.20;43.00;;;;;;5096310;28;20031;-85
2022/08/11 14:39:11;;;;;;;1.25;0.90;;;33.20;43.00;;;;;;5097498;28;20510;-84
2022/08/11 14:47:13;;;;;;;4.03;0.98;;;33.00;44.60;;;;;;5099500;28;20046;-84
2022/08/11 14:49:39;;;;;;;3.05;0.80;;;33.10;43.20;;;;;;5097954;28;20103;-83
2022/08/11 14:52:14;;;;;;;4.38;1.00;;;33.10;43.80;;;;;;5093386;28;20486;-83
2022/08/11 14:57:30;;;;;;;4.28;1.42;;;33.00;43.10;;;;;;5093611;28;20081;-84
2022/08/11 14:59:59;;;;;;;2.53;1.20;;;33.10;43.70;;;;;;5091034;28;20057;-84
2022/08/11 15:05:11;;;;;;;6.05;1.20;;;33.20;44.00;;;;;;5092105;28;20069;-85
2022/08/11 15:07:36;;;;;;;3.55;1.30;;;33.10;43.00;;;;;;5091419;28;20036;-84
2022/08/11 15:10:05;;;;;;;2.67;1.33;;;33.10;44.20;;;;;;5090501;28;20020;-86
2022/08/11 15:12:33;;;;;;;6.07;1.20;;;33.10;44.40;;;;;;5091581;28;20066;-85
2022/08/11 15:17:47;;;;;;;2.83;0.88;;;33.10;43.00;;;;;;5091900;28;20050;-86
2022/08/11 15:25:51;;;;;;;2.05;1.00;;;32.60;43.40;;;;;;5091297;28;20042;-88
2022/08/11 15:39:26;;;;;;;2.03;1.17;;;32.50;44.00;;;;;;5094240;28;20031;-87
2022/08/11 15:47:46;;;;;;;3.15;1.02;;;32.40;44.80;;;;;;5103646;28;20058;-86
2022/08/11 15:50:16;;;;;;;3.58;1.10;;;32.50;44.50;;;;;;5106171;28;20073;-88
2022/08/11 15:52:53;;;;;;;3.20;1.02;;;32.40;43.80;;;;;;5111389;28;20032;-88
2022/08/11 15:55:20;;;;;;;4.70;1.00;;;32.40;44.40;;;;;;5111438;28;20500;-86
2022/08/11 16:06:12;;;;;;;4.47;1.00;;;32.00;43.90;;;;;;5115644;28;20030;-85
2022/08/11 16:08:39;;;;;;;7.00;0.95;;;31.90;43.40;;;;;;5123650;28;20020;-85
2022/08/11 16:11:07;;;;;;;6.10;1.23;;;31.90;44.60;;;;;;5119920;28;20034;-87
2022/08/11 16:16:15;;;;;;;8.23;1.27;;;31.70;43.40;;;;;;5116872;28;20508;-86
2022/08/11 16:18:54;;;;;;;1.67;1.27;;;31.40;43.70;;;;;;5116168;28;20031;-84
2022/08/11 16:21:24;;;;;;;2.15;1.02;;;31.40;44.60;;;;;;5115749;28;20036;-86
2022/08/11 16:23:53;;;;;;;1.58;0.90;;;31.30;43.70;;;;;;5115945;28;20764;-86
2022/08/11 16:26:22;;;;;;;3.50;1.15;;;31.20;43.70;;;;;;5115313;28;20111;-87
2022/08/11 16:28:50;;;;;;;3.92;0.98;;;31.10;44.70;;;;;;5115363;28;20458;-85
2022/08/11 16:31:17;;;;;;;4.00;0.80;;;31.10;44.90;;;;;;5115336;28;20138;-85
2022/08/11 16:33:44;;;;;;;2.28;0.73;;;31.10;44.80;;;;;;5115636;28;20024;-86
2022/08/11 16:38:58;;;;;;;5.20;1.02;;;31.00;44.60;;;;;;5115546;28;20035;-86
2022/08/11 16:47:00;;;;;;;4.53;1.05;;;31.00;43.40;;;;;;5114911;28;20031;-86
2022/08/11 16:49:31;;;;;;;7.55;1.08;;;30.90;43.70;;;;;;5113554;28;20035;-86
2022/08/11 16:52:02;;;;;;;4.35;0.95;;;30.80;44.10;;;;;;5115080;28;20031;-85
2022/08/11 16:54:31;;;;;;;2.22;1.17;;;30.80;43.60;;;;;;5113920;28;20038;-87
2022/08/11 16:59:12;;;;;;;2.28;1.05;;;30.60;43.70;;;;;;5115603;28;20031;-85
2022/08/11 16:59:48;;;;;;;4.65;0.90;;;30.50;43.10;;;;;;5115444;28;20024;-85
2022/08/11 17:13:07;;;;;;;1.88;0.80;;;30.40;43.70;;;;;;5115322;28;20489;-85
2022/08/11 17:13:53;;;;;;;1.52;0.77;;;30.50;43.10;;;;;;5115139;28;20034;-86
2022/08/11 17:16:30;;;;;;;1.20;0.75;;;30.50;43.10;;;;;;5112884;28;20023;-86
2022/08/11 17:19:04;;;;;;;1.10;0.80;;;30.60;42.50;;;;;;5115546;28;20031;-87
2022/08/11 17:23:45;;;;;;;2.58;0.68;;;30.60;42.80;;;;;;5113993;28;20593;-88
2022/08/11 17:24:26;;;;;;;2.78;0.77;;;30.50;42.50;;;;;;5114781;28;20028;-88
2022/08/11 17:26:56;;;;;;;1.30;0.70;;;30.40;42.80;;;;;;5113546;28;20070;-86
2022/08/11 17:29:32;;;;;;;4.47;0.73;;;30.30;43.00;;;;;;5114735;28;20030;-87
2022/08/11 17:37:40;;;;;;;1.63;1.10;;;29.90;43.10;;;;;;5113930;28;20084;-85
2022/08/11 17:40:09;;;;;;;2.45;0.80;;;29.70;43.30;;;;;;5114192;28;20103;-85
2022/08/11 17:48:26;;;;;;;3.20;0.70;;;29.50;43.20;;;;;;5113955;28;20217;-87
2022/08/11 17:50:54;;;;;;;2.85;0.68;;;29.40;42.80;;;;;;5112511;28;20170;-86
2022/08/11 18:01:38;;;;;;;1.08;0.70;;;29.20;42.00;;;;;;5112798;28;20096;-87
2022/08/11 18:04:06;;;;;;;1.70;0.70;;;29.10;42.80;;;;;;5113273;28;20031;-88
2022/08/11 18:06:34;;;;;;;5.28;0.90;;;29.10;42.70;;;;;;5111087;28;20063;-87
